sensor_id;sensor_type;location;lat;lon;timestamp;pressure;altitude;pressure_sealevel;temperature;humidity
20119;BME280;10220;42.716;23.306;2023-05-11T00:01:44;95459.59;;;10.36;100.00
20119;BME280;10220;42.716;23.306;2023-05-11T00:04:10;95464.16;;;10.34;100.00
20119;BME280;10220;42.716;23.306;2023-05-11T00:06:37;95463.31;;;10.21;100.00
20119;BME280;10220;42.716;23.306;2023-05-11T00:09:03;95466.13;;;10.26;100.00
20119;BME280;10220;42.716;23.306;2023-05-11T00:11:29;95474.47;;;10.21;100.00
20119;BME280;10220;42.716;23.306;2023-05-11T00:13:55;95470.06;;;10.15;100.00
20119;BME280;10220;42.716;23.306;2023-05-11T00:16:20;95460.13;;;10.19;100.00
20119;BME280;10220;42.716;23.306;2023-05-11T00:18:45;95445.72;;;10.03;100.00
20119;BME280;10220;42.716;23.306;2023-05-11T00:21:11;95466.09;;;10.13;100.00
20119;BME280;10220;42.716;23.306;2023-05-11T00:23:37;95468.00;;;10.04;100.00
20119;BME280;10220;42.716;23.306;2023-05-11T00:26:02;95461.03;;;10.05;100.00
20119;BME280;10220;42.716;23.306;2023-05-11T00:28:27;95457.63;;;9.98;100.00
20119;BME280;10220;42.716;23.306;2023-05-11T00:30:56;95464.75;;;9.90;100.00
20119;BME280;10220;42.716;23.306;2023-05-11T00:33:22;95458.94;;;9.88;100.00
20119;BME280;10220;42.716;23.306;2023-05-11T00:35:48;95443.00;;;9.84;100.00
20119;BME280;10220;42.716;23.306;2023-05-11T00:38:13;95458.72;;;9.83;100.00
20119;BME280;10220;42.716;23.306;2023-05-11T00:40:39;95455.88;;;9.71;100.00
20119;BME280;10220;42.716;23.306;2023-05-11T00:43:05;95462.22;;;9.69;100.00
20119;BME280;10220;42.716;23.306;2023-05-11T00:45:31;95473.22;;;9.77;100.00
20119;BME280;10220;42.716;23.306;2023-05-11T00:47:57;95475.75;;;9.71;100.00
20119;BME280;10220;42.716;23.306;2023-05-11T00:50:23;95455.84;;;9.65;100.00
20119;BME280;10220;42.716;23.306;2023-05-11T00:52:49;95464.66;;;9.77;100.00
20119;BME280;10220;42.716;23.306;2023-05-11T00:55:15;95457.06;;;9.69;100.00
20119;BME280;10220;42.716;23.306;2023-05-11T00:57:43;95476.59;;;9.78;100.00
20119;BME280;10220;42.716;23.306;2023-05-11T01:00:09;95463.91;;;9.55;100.00
20119;BME280;10220;42.716;23.306;2023-05-11T01:02:34;95446.00;;;9.54;100.00
20119;BME280;10220;42.716;23.306;2023-05-11T01:05:00;95460.19;;;9.64;100.00
20119;BME280;10220;42.716;23.306;2023-05-11T01:08:03;95473.16;;;9.71;100.00
20119;BME280;10220;42.716;23.306;2023-05-11T01:10:48;95462.56;;;9.59;100.00
20119;BME280;10220;42.716;23.306;2023-05-11T01:13:33;95470.50;;;9.58;100.00
20119;BME280;10220;42.716;23.306;2023-05-11T01:16:05;95470.34;;;9.66;100.00
20119;BME280;10220;42.716;23.306;2023-05-11T01:18:41;95483.13;;;9.74;100.00
20119;BME280;10220;42.716;23.306;2023-05-11T01:21:10;95470.53;;;9.64;100.00
20119;BME280;10220;42.716;23.306;2023-05-11T01:32:18;95462.97;;;9.63;100.00
20119;BME280;10220;42.716;23.306;2023-05-11T01:34:46;95489.63;;;9.63;100.00
20119;BME280;10220;42.716;23.306;2023-05-11T01:37:19;95486.72;;;9.73;100.00
20119;BME280;10220;42.716;23.306;2023-05-11T01:39:53;95478.16;;;9.72;100.00
20119;BME280;10220;42.716;23.306;2023-05-11T01:42:29;95487.09;;;9.70;100.00
20119;BME280;10220;42.716;23.306;2023-05-11T01:44:56;95489.06;;;9.68;100.00
20119;BME280;10220;42.716;23.306;2023-05-11T01:47:25;95484.88;;;9.67;100.00
20119;BME280;10220;42.716;23.306;2023-05-11T01:49:53;95484.50;;;9.70;100.00
20119;BME280;10220;42.716;23.306;2023-05-11T01:52:20;95495.97;;;9.61;100.00
20119;BME280;10220;42.716;23.306;2023-05-11T01:54:48;95495.44;;;9.65;100.00
20119;BME280;10220;42.716;23.306;2023-05-11T01:57:16;95488.78;;;9.56;100.00
20119;BME280;10220;42.716;23.306;2023-05-11T01:59:42;95503.19;;;9.65;100.00
20119;BME280;10220;42.716;23.306;2023-05-11T02:02:09;95489.81;;;9.62;100.00
20119;BME280;10220;42.716;23.306;2023-05-11T02:04:37;95499.72;;;9.52;100.00
20119;BME280;10220;42.716;23.306;2023-05-11T02:07:06;95494.41;;;9.60;100.00
20119;BME280;10220;42.716;23.306;2023-05-11T02:09:38;95485.63;;;9.61;100.00
20119;BME280;10220;42.716;23.306;2023-05-11T02:12:05;95478.06;;;9.59;100.00
20119;BME280;10220;42.716;23.306;2023-05-11T02:14:33;95490.63;;;9.62;100.00
20119;BME280;10220;42.716;23.306;2023-05-11T02:17:02;95489.53;;;9.44;100.00
20119;BME280;10220;42.716;23.306;2023-05-11T02:19:31;95486.41;;;9.55;100.00
20119;BME280;10220;42.716;23.306;2023-05-11T02:21:58;95468.91;;;9.57;100.00
20119;BME280;10220;42.716;23.306;2023-05-11T02:24:26;95482.84;;;9.56;100.00
20119;BME280;10220;42.716;23.306;2023-05-11T02:26:52;95485.63;;;9.61;100.00
20119;BME280;10220;42.716;23.306;2023-05-11T02:29:20;95474.00;;;9.44;100.00
20119;BME280;10220;42.716;23.306;2023-05-11T02:31:48;95487.03;;;9.36;100.00
20119;BME280;10220;42.716;23.306;2023-05-11T02:34:21;95486.16;;;9.50;100.00
20119;BME280;10220;42.716;23.306;2023-05-11T02:36:48;95487.09;;;9.42;100.00
20119;BME280;10220;42.716;23.306;2023-05-11T02:39:20;95487.88;;;9.36;100.00
20119;BME280;10220;42.716;23.306;2023-05-11T02:41:51;95487.31;;;9.20;100.00
20119;BME280;10220;42.716;23.306;2023-05-11T02:44:20;95481.81;;;9.30;100.00
20119;BME280;10220;42.716;23.306;2023-05-11T02:46:47;95488.41;;;9.32;100.00
20119;BME280;10220;42.716;23.306;2023-05-11T02:49:14;95485.31;;;9.43;100.00
20119;BME280;10220;42.716;23.306;2023-05-11T02:51:43;95483.88;;;9.34;100.00
20119;BME280;10220;42.716;23.306;2023-05-11T02:54:11;95477.09;;;9.33;100.00
20119;BME280;10220;42.716;23.306;2023-05-11T02:56:37;95469.09;;;9.28;100.00
20119;BME280;10220;42.716;23.306;2023-05-11T02:59:03;95486.44;;;9.34;100.00
20119;BME280;10220;42.716;23.306;2023-05-11T03:01:32;95460.69;;;9.20;100.00
20119;BME280;10220;42.716;23.306;2023-05-11T03:03:58;95454.94;;;9.24;100.00
20119;BME280;10220;42.716;23.306;2023-05-11T03:06:24;95456.50;;;9.19;100.00
20119;BME280;10220;42.716;23.306;2023-05-11T03:08:49;95474.09;;;9.09;100.00
20119;BME280;10220;42.716;23.306;2023-05-11T03:11:16;95465.50;;;9.02;100.00
20119;BME280;10220;42.716;23.306;2023-05-11T03:13:43;95446.91;;;8.92;100.00
20119;BME280;10220;42.716;23.306;2023-05-11T03:16:10;95475.94;;;9.15;100.00
20119;BME280;10220;42.716;23.306;2023-05-11T03:18:37;95466.78;;;9.12;100.00
20119;BME280;10220;42.716;23.306;2023-05-11T03:21:04;95464.63;;;9.16;100.00
20119;BME280;10220;42.716;23.306;2023-05-11T03:23:31;95476.69;;;9.09;100.00
20119;BME280;10220;42.716;23.306;2023-05-11T03:26:00;95463.34;;;9.05;100.00
20119;BME280;10220;42.716;23.306;2023-05-11T03:28:26;95479.16;;;9.17;100.00
20119;BME280;10220;42.716;23.306;2023-05-11T03:30:53;95477.16;;;9.19;100.00
20119;BME280;10220;42.716;23.306;2023-05-11T03:33:21;95475.72;;;9.10;100.00
20119;BME280;10220;42.716;23.306;2023-05-11T03:35:49;95493.72;;;9.03;100.00
20119;BME280;10220;42.716;23.306;2023-05-11T03:38:15;95484.63;;;9.07;100.00
20119;BME280;10220;42.716;23.306;2023-05-11T03:40:41;95484.22;;;9.04;100.00
20119;BME280;10220;42.716;23.306;2023-05-11T03:43:10;95485.13;;;8.96;100.00
20119;BME280;10220;42.716;23.306;2023-05-11T03:45:37;95471.59;;;8.94;100.00
20119;BME280;10220;42.716;23.306;2023-05-11T03:48:05;95489.25;;;9.12;100.00
20119;BME280;10220;42.716;23.306;2023-05-11T03:50:32;95490.22;;;9.11;100.00
20119;BME280;10220;42.716;23.306;2023-05-11T03:53:01;95471.59;;;8.94;100.00
20119;BME280;10220;42.716;23.306;2023-05-11T03:55:26;95475.28;;;8.85;100.00
20119;BME280;10220;42.716;23.306;2023-05-11T03:57:52;95493.25;;;8.93;100.00
20119;BME280;10220;42.716;23.306;2023-05-11T04:00:18;95489.25;;;8.91;100.00
20119;BME280;10220;42.716;23.306;2023-05-11T04:02:43;95492.63;;;8.91;100.00
20119;BME280;10220;42.716;23.306;2023-05-11T04:05:10;95494.31;;;8.99;100.00
20119;BME280;10220;42.716;23.306;2023-05-11T04:07:38;95500.25;;;8.99;100.00
20119;BME280;10220;42.716;23.306;2023-05-11T04:10:05;95490.50;;;8.95;100.00
20119;BME280;10220;42.716;23.306;2023-05-11T04:12:30;95497.41;;;8.94;100.00
20119;BME280;10220;42.716;23.306;2023-05-11T04:14:56;95496.31;;;9.03;100.00
20119;BME280;10220;42.716;23.306;2023-05-11T04:17:21;95495.47;;;8.96;100.00
20119;BME280;10220;42.716;23.306;2023-05-11T04:19:47;95504.50;;;8.86;100.00
20119;BME280;10220;42.716;23.306;2023-05-11T04:22:15;95501.59;;;8.95;100.00
20119;BME280;10220;42.716;23.306;2023-05-11T04:24:40;95487.34;;;8.99;100.00
20119;BME280;10220;42.716;23.306;2023-05-11T04:27:06;95511.28;;;8.87;100.00
20119;BME280;10220;42.716;23.306;2023-05-11T04:29:31;95493.53;;;8.84;100.00
20119;BME280;10220;42.716;23.306;2023-05-11T04:31:57;95505.84;;;8.82;100.00
20119;BME280;10220;42.716;23.306;2023-05-11T04:34:22;95505.78;;;8.76;100.00
20119;BME280;10220;42.716;23.306;2023-05-11T04:36:50;95504.50;;;8.86;100.00
20119;BME280;10220;42.716;23.306;2023-05-11T04:39:16;95512.38;;;8.78;100.00
20119;BME280;10220;42.716;23.306;2023-05-11T04:41:42;95504.91;;;8.69;100.00
20119;BME280;10220;42.716;23.306;2023-05-11T04:44:08;95498.94;;;8.68;100.00
20119;BME280;10220;42.716;23.306;2023-05-11T04:46:33;95511.50;;;8.71;100.00
20119;BME280;10220;42.716;23.306;2023-05-11T04:48:59;95481.97;;;8.59;100.00
20119;BME280;10220;42.716;23.306;2023-05-11T04:51:24;95501.91;;;8.65;100.00
20119;BME280;10220;42.716;23.306;2023-05-11T04:53:50;95509.97;;;8.77;100.00
20119;BME280;10220;42.716;23.306;2023-05-11T04:56:15;95511.38;;;8.79;100.00
20119;BME280;10220;42.716;23.306;2023-05-11T04:58:42;95516.38;;;8.80;100.00
20119;BME280;10220;42.716;23.306;2023-05-11T05:01:07;95514.25;;;8.70;100.00
20119;BME280;10220;42.716;23.306;2023-05-11T05:03:32;95522.41;;;8.87;100.00
20119;BME280;10220;42.716;23.306;2023-05-11T05:05:58;95524.25;;;8.73;100.00
20119;BME280;10220;42.716;23.306;2023-05-11T05:08:23;95521.09;;;8.77;100.00
20119;BME280;10220;42.716;23.306;2023-05-11T05:10:49;95520.19;;;8.84;100.00
20119;BME280;10220;42.716;23.306;2023-05-11T05:13:16;95526.03;;;8.93;100.00
20119;BME280;10220;42.716;23.306;2023-05-11T05:15:42;95520.31;;;8.97;100.00
20119;BME280;10220;42.716;23.306;2023-05-11T05:18:08;95533.06;;;8.99;100.00
20119;BME280;10220;42.716;23.306;2023-05-11T05:20:33;95527.44;;;8.95;100.00
20119;BME280;10220;42.716;23.306;2023-05-11T05:23:00;95532.06;;;9.00;100.00
20119;BME280;10220;42.716;23.306;2023-05-11T05:25:25;95527.63;;;8.94;100.00
20119;BME280;10220;42.716;23.306;2023-05-11T05:27:51;95529.44;;;8.93;100.00
20119;BME280;10220;42.716;23.306;2023-05-11T05:30:16;95527.25;;;8.97;100.00
20119;BME280;10220;42.716;23.306;2023-05-11T05:32:41;95538.75;;;8.94;100.00
20119;BME280;10220;42.716;23.306;2023-05-11T05:35:07;95524.53;;;9.05;100.00
20119;BME280;10220;42.716;23.306;2023-05-11T05:37:33;95534.09;;;9.04;100.00
20119;BME280;10220;42.716;23.306;2023-05-11T05:39:58;95513.03;;;9.07;100.00
20119;BME280;10220;42.716;23.306;2023-05-11T05:42:23;95526.59;;;9.09;100.00
20119;BME280;10220;42.716;23.306;2023-05-11T05:44:49;95537.78;;;9.16;100.00
20119;BME280;10220;42.716;23.306;2023-05-11T05:47:15;95530.88;;;9.23;100.00
20119;BME280;10220;42.716;23.306;2023-05-11T05:49:41;95518.41;;;9.06;100.00
20119;BME280;10220;42.716;23.306;2023-05-11T05:52:06;95522.72;;;8.99;100.00
20119;BME280;10220;42.716;23.306;2023-05-11T05:54:31;95552.19;;;9.25;100.00
20119;BME280;10220;42.716;23.306;2023-05-11T05:56:57;95546.88;;;9.12;100.00
20119;BME280;10220;42.716;23.306;2023-05-11T05:59:22;95548.06;;;9.10;100.00
20119;BME280;10220;42.716;23.306;2023-05-11T06:01:49;95550.81;;;9.08;100.00
20119;BME280;10220;42.716;23.306;2023-05-11T06:04:15;95542.09;;;9.09;100.00
20119;BME280;10220;42.716;23.306;2023-05-11T06:06:41;95518.72;;;8.96;100.00
20119;BME280;10220;42.716;23.306;2023-05-11T06:09:06;95537.97;;;8.94;100.00
20119;BME280;10220;42.716;23.306;2023-05-11T06:11:32;95536.16;;;8.94;100.00
20119;BME280;10220;42.716;23.306;2023-05-11T06:13:57;95532.22;;;8.98;100.00
20119;BME280;10220;42.716;23.306;2023-05-11T06:16:23;95560.38;;;9.08;100.00
20119;BME280;10220;42.716;23.306;2023-05-11T06:18:49;95565.09;;;9.04;100.00
20119;BME280;10220;42.716;23.306;2023-05-11T06:21:15;95565.53;;;9.08;100.00
20119;BME280;10220;42.716;23.306;2023-05-11T06:23:40;95573.03;;;9.24;100.00
20119;BME280;10220;42.716;23.306;2023-05-11T06:26:05;95566.13;;;9.10;100.00
20119;BME280;10220;42.716;23.306;2023-05-11T06:28:31;95575.00;;;9.22;100.00
20119;BME280;10220;42.716;23.306;2023-05-11T06:30:59;95567.88;;;9.24;100.00
20119;BME280;10220;42.716;23.306;2023-05-11T06:33:25;95574.28;;;9.28;100.00
20119;BME280;10220;42.716;23.306;2023-05-11T06:35:50;95589.78;;;9.28;100.00
20119;BME280;10220;42.716;23.306;2023-05-11T06:38:16;95576.66;;;9.29;100.00
20119;BME280;10220;42.716;23.306;2023-05-11T06:40:41;95583.63;;;9.29;100.00
20119;BME280;10220;42.716;23.306;2023-05-11T06:43:07;95573.03;;;9.24;100.00
20119;BME280;10220;42.716;23.306;2023-05-11T06:45:32;95566.78;;;9.12;100.00
20119;BME280;10220;42.716;23.306;2023-05-11T06:47:58;95576.78;;;9.21;100.00
20119;BME280;10220;42.716;23.306;2023-05-11T06:50:23;95581.41;;;9.26;100.00
20119;BME280;10220;42.716;23.306;2023-05-11T06:52:49;95566.59;;;9.34;100.00
20119;BME280;10220;42.716;23.306;2023-05-11T06:55:14;95579.56;;;9.40;100.00
20119;BME280;10220;42.716;23.306;2023-05-11T06:57:40;95576.84;;;9.28;100.00
20119;BME280;10220;42.716;23.306;2023-05-11T07:00:06;95555.50;;;9.19;100.00
20119;BME280;10220;42.716;23.306;2023-05-11T07:02:31;95582.28;;;9.33;100.00
20119;BME280;10220;42.716;23.306;2023-05-11T07:04:57;95585.34;;;9.42;100.00
20119;BME280;10220;42.716;23.306;2023-05-11T07:07:23;95578.75;;;9.40;100.00
20119;BME280;10220;42.716;23.306;2023-05-11T07:09:49;95576.13;;;9.54;100.00
20119;BME280;10220;42.716;23.306;2023-05-11T07:12:14;95565.00;;;9.60;100.00
20119;BME280;10220;42.716;23.306;2023-05-11T07:14:40;95581.22;;;9.69;100.00
20119;BME280;10220;42.716;23.306;2023-05-11T07:17:05;95567.09;;;9.71;100.00
20119;BME280;10220;42.716;23.306;2023-05-11T07:19:31;95582.16;;;9.89;100.00
20119;BME280;10220;42.716;23.306;2023-05-11T07:21:57;95582.03;;;9.96;100.00
20119;BME280;10220;42.716;23.306;2023-05-11T07:24:22;95576.72;;;9.84;100.00
20119;BME280;10220;42.716;23.306;2023-05-11T07:26:47;95585.75;;;9.94;100.00
20119;BME280;10220;42.716;23.306;2023-05-11T07:29:14;95587.06;;;10.04;100.00
20119;BME280;10220;42.716;23.306;2023-05-11T07:31:40;95557.03;;;9.83;100.00
20119;BME280;10220;42.716;23.306;2023-05-11T07:34:07;95580.88;;;9.99;100.00
20119;BME280;10220;42.716;23.306;2023-05-11T07:36:32;95579.78;;;10.14;100.00
20119;BME280;10220;42.716;23.306;2023-05-11T07:38:58;95588.53;;;10.13;100.00
20119;BME280;10220;42.716;23.306;2023-05-11T07:41:25;95582.00;;;10.24;100.00
20119;BME280;10220;42.716;23.306;2023-05-11T07:43:52;95594.75;;;10.59;100.00
20119;BME280;10220;42.716;23.306;2023-05-11T07:46:17;95592.13;;;10.52;100.00
20119;BME280;10220;42.716;23.306;2023-05-11T07:48:43;95598.00;;;10.67;100.00
20119;BME280;10220;42.716;23.306;2023-05-11T07:51:09;95592.88;;;10.87;100.00
20119;BME280;10220;42.716;23.306;2023-05-11T07:53:35;95598.28;;;10.92;100.00
20119;BME280;10220;42.716;23.306;2023-05-11T07:56:00;95595.97;;;11.22;100.00
20119;BME280;10220;42.716;23.306;2023-05-11T07:58:27;95579.66;;;11.28;100.00
20119;BME280;10220;42.716;23.306;2023-05-11T08:00:53;95606.59;;;11.40;100.00
20119;BME280;10220;42.716;23.306;2023-05-11T08:03:18;95583.75;;;11.04;100.00
20119;BME280;10220;42.716;23.306;2023-05-11T08:05:44;95586.03;;;11.32;100.00
20119;BME280;10220;42.716;23.306;2023-05-11T08:08:09;95601.78;;;11.18;100.00
20119;BME280;10220;42.716;23.306;2023-05-11T08:10:35;95602.59;;;11.31;100.00
20119;BME280;10220;42.716;23.306;2023-05-11T08:13:00;95599.59;;;11.41;100.00
20119;BME280;10220;42.716;23.306;2023-05-11T08:15:26;95586.06;;;11.39;100.00
20119;BME280;10220;42.716;23.306;2023-05-11T08:17:52;95601.84;;;11.63;100.00
20119;BME280;10220;42.716;23.306;2023-05-11T08:20:18;95600.28;;;11.56;100.00
20119;BME280;10220;42.716;23.306;2023-05-11T08:22:43;95609.63;;;11.50;100.00
20119;BME280;10220;42.716;23.306;2023-05-11T08:25:10;95604.19;;;11.32;100.00
20119;BME280;10220;42.716;23.306;2023-05-11T08:27:35;95587.59;;;11.27;100.00
20119;BME280;10220;42.716;23.306;2023-05-11T08:30:01;95598.06;;;11.66;100.00
20119;BME280;10220;42.716;23.306;2023-05-11T08:32:27;95590.03;;;11.41;100.00
20119;BME280;10220;42.716;23.306;2023-05-11T08:34:53;95589.66;;;11.44;100.00
20119;BME280;10220;42.716;23.306;2023-05-11T08:37:18;95604.38;;;11.31;100.00
20119;BME280;10220;42.716;23.306;2023-05-11T08:39:44;95604.97;;;11.26;100.00
20119;BME280;10220;42.716;23.306;2023-05-11T08:42:11;95600.41;;;11.28;100.00
20119;BME280;10220;42.716;23.306;2023-05-11T08:44:42;95607.25;;;11.55;100.00
20119;BME280;10220;42.716;23.306;2023-05-11T08:47:09;95604.38;;;11.31;100.00
20119;BME280;10220;42.716;23.306;2023-05-11T08:49:35;95586.22;;;11.24;100.00
20119;BME280;10220;42.716;23.306;2023-05-11T08:52:04;95600.38;;;11.22;100.00
20119;BME280;10220;42.716;23.306;2023-05-11T08:54:32;95598.22;;;11.45;100.00
20119;BME280;10220;42.716;23.306;2023-05-11T08:56:59;95597.28;;;11.72;100.00
20119;BME280;10220;42.716;23.306;2023-05-11T08:59:26;95600.88;;;11.58;100.00
20119;BME280;10220;42.716;23.306;2023-05-11T09:01:53;95598.28;;;11.64;100.00
20119;BME280;10220;42.716;23.306;2023-05-11T09:04:20;95592.63;;;11.35;100.00
20119;BME280;10220;42.716;23.306;2023-05-11T09:06:48;95589.66;;;11.44;100.00
20119;BME280;10220;42.716;23.306;2023-05-11T09:09:14;95590.88;;;11.55;100.00
20119;BME280;10220;42.716;23.306;2023-05-11T09:11:40;95569.53;;;11.66;100.00
20119;BME280;10220;42.716;23.306;2023-05-11T09:14:06;95578.31;;;11.52;100.00
20119;BME280;10220;42.716;23.306;2023-05-11T09:16:31;95587.09;;;11.57;100.00
20119;BME280;10220;42.716;23.306;2023-05-11T09:18:59;95555.69;;;11.26;100.00
20119;BME280;10220;42.716;23.306;2023-05-11T09:21:26;95594.69;;;11.65;100.00
20119;BME280;10220;42.716;23.306;2023-05-11T09:23:56;95586.44;;;11.49;100.00
20119;BME280;10220;42.716;23.306;2023-05-11T09:26:25;95588.44;;;11.40;100.00
20119;BME280;10220;42.716;23.306;2023-05-11T09:28:55;95590.63;;;11.37;100.00
20119;BME280;10220;42.716;23.306;2023-05-11T09:36:38;95583.69;;;11.57;100.00
20119;BME280;10220;42.716;23.306;2023-05-11T09:39:03;95591.09;;;11.66;100.00
20119;BME280;10220;42.716;23.306;2023-05-11T09:41:30;95595.09;;;11.56;100.00
20119;BME280;10220;42.716;23.306;2023-05-11T09:44:09;95584.72;;;11.56;100.00
20119;BME280;10220;42.716;23.306;2023-05-11T09:46:42;95583.69;;;11.57;100.00
20119;BME280;10220;42.716;23.306;2023-05-11T09:49:09;95583.69;;;11.70;100.00
20119;BME280;10220;42.716;23.306;2023-05-11T09:51:38;95583.31;;;11.60;100.00
20119;BME280;10220;42.716;23.306;2023-05-11T09:54:24;95581.72;;;11.65;100.00
20119;BME280;10220;42.716;23.306;2023-05-11T09:56:52;95554.94;;;11.71;100.00
20119;BME280;10220;42.716;23.306;2023-05-11T09:59:38;95564.75;;;11.75;100.00
20119;BME280;10220;42.716;23.306;2023-05-11T10:02:23;95557.53;;;11.90;100.00
20119;BME280;10220;42.716;23.306;2023-05-11T10:04:51;95559.75;;;11.87;100.00
20119;BME280;10220;42.716;23.306;2023-05-11T10:07:29;95552.16;;;11.85;100.00
20119;BME280;10220;42.716;23.306;2023-05-11T10:10:01;95562.16;;;11.82;100.00
20119;BME280;10220;42.716;23.306;2023-05-11T10:12:27;95561.28;;;12.20;100.00
20119;BME280;10220;42.716;23.306;2023-05-11T10:15:08;95556.72;;;12.09;100.00
20119;BME280;10220;42.716;23.306;2023-05-11T10:17:35;95567.69;;;12.18;100.00
20119;BME280;10220;42.716;23.306;2023-05-11T10:20:02;95539.75;;;12.00;100.00
20119;BME280;10220;42.716;23.306;2023-05-11T10:22:28;95535.19;;;11.83;100.00
20119;BME280;10220;42.716;23.306;2023-05-11T10:24:58;95523.97;;;12.02;100.00
20119;BME280;10220;42.716;23.306;2023-05-11T10:27:25;95548.31;;;12.20;100.00
20119;BME280;10220;42.716;23.306;2023-05-11T10:29:50;95523.34;;;12.13;100.00
20119;BME280;10220;42.716;23.306;2023-05-11T10:32:19;95510.97;;;12.15;100.00
20119;BME280;10220;42.716;23.306;2023-05-11T10:37:50;95480.03;;;12.07;100.00
20119;BME280;10220;42.716;23.306;2023-05-11T11:01:40;95509.88;;;12.91;100.00
20119;BME280;10220;42.716;23.306;2023-05-11T11:04:11;95528.91;;;13.23;100.00
20119;BME280;10220;42.716;23.306;2023-05-11T11:06:41;95523.69;;;13.23;100.00
20119;BME280;10220;42.716;23.306;2023-05-11T11:09:09;95530.50;;;13.54;100.00
20119;BME280;10220;42.716;23.306;2023-05-11T11:11:42;95504.59;;;13.59;100.00
20119;BME280;10220;42.716;23.306;2023-05-11T11:14:13;95521.38;;;13.70;100.00
20119;BME280;10220;42.716;23.306;2023-05-11T11:16:39;95515.66;;;13.79;100.00
20119;BME280;10220;42.716;23.306;2023-05-11T11:21:56;95521.69;;;13.49;100.00
20119;BME280;10220;42.716;23.306;2023-05-11T11:27:06;95518.41;;;13.36;100.00
20119;BME280;10220;42.716;23.306;2023-05-11T11:29:37;95501.53;;;13.14;100.00
20119;BME280;10220;42.716;23.306;2023-05-11T11:34:50;95507.81;;;13.31;100.00
20119;BME280;10220;42.716;23.306;2023-05-11T11:37:17;95514.38;;;13.40;100.00
20119;BME280;10220;42.716;23.306;2023-05-11T11:44:37;95472.47;;;12.92;100.00
20119;BME280;10220;42.716;23.306;2023-05-11T11:47:22;95510.72;;;12.86;100.00
20119;BME280;10220;42.716;23.306;2023-05-11T11:49:49;95506.22;;;13.05;100.00
20119;BME280;10220;42.716;23.306;2023-05-11T11:55:00;95501.25;;;12.97;100.00
20119;BME280;10220;42.716;23.306;2023-05-11T11:59:54;95500.28;;;13.23;100.00
20119;BME280;10220;42.716;23.306;2023-05-11T12:02:21;95505.19;;;13.37;100.00
20119;BME280;10220;42.716;23.306;2023-05-11T12:07:24;95476.34;;;13.14;100.00
20119;BME280;10220;42.716;23.306;2023-05-11T12:09:50;95504.19;;;13.07;100.00
20119;BME280;10220;42.716;23.306;2023-05-11T12:12:18;95495.13;;;12.79;100.00
20119;BME280;10220;42.716;23.306;2023-05-11T12:14:45;95498.47;;;12.92;100.00
20119;BME280;10220;42.716;23.306;2023-05-11T12:17:15;95498.75;;;13.15;100.00
20119;BME280;10220;42.716;23.306;2023-05-11T12:19:47;95495.69;;;12.88;100.00
20119;BME280;10220;42.716;23.306;2023-05-11T12:22:12;95491.09;;;12.90;100.00
20119;BME280;10220;42.716;23.306;2023-05-11T12:24:39;95490.41;;;12.63;100.00
20119;BME280;10220;42.716;23.306;2023-05-11T12:27:08;95488.81;;;12.62;100.00
20119;BME280;10220;42.716;23.306;2023-05-11T12:29:37;95479.88;;;12.89;100.00
20119;BME280;10220;42.716;23.306;2023-05-11T12:32:03;95486.19;;;13.06;100.00
20119;BME280;10220;42.716;23.306;2023-05-11T12:34:29;95469.88;;;13.23;100.00
20119;BME280;10220;42.716;23.306;2023-05-11T12:36:54;95467.81;;;13.01;100.00
20119;BME280;10220;42.716;23.306;2023-05-11T12:39:25;95468.00;;;12.69;100.00
20119;BME280;10220;42.716;23.306;2023-05-11T12:41:52;95469.38;;;12.71;100.00
20119;BME280;10220;42.716;23.306;2023-05-11T12:44:19;95476.75;;;12.74;100.00
20119;BME280;10220;42.716;23.306;2023-05-11T12:46:46;95457.94;;;12.41;100.00
20119;BME280;10220;42.716;23.306;2023-05-11T12:49:14;95474.22;;;12.61;100.00
20119;BME280;10220;42.716;23.306;2023-05-11T12:51:48;95442.41;;;12.66;100.00
20119;BME280;10220;42.716;23.306;2023-05-11T12:54:34;95460.34;;;12.74;100.00
20119;BME280;10220;42.716;23.306;2023-05-11T12:57:03;95447.50;;;12.85;100.00
20119;BME280;10220;42.716;23.306;2023-05-11T12:59:39;95455.00;;;12.69;100.00
20119;BME280;10220;42.716;23.306;2023-05-11T13:02:18;95448.03;;;12.63;100.00
20119;BME280;10220;42.716;23.306;2023-05-11T13:04:46;95438.25;;;12.58;100.00
20119;BME280;10220;42.716;23.306;2023-05-11T13:07:13;95443.97;;;12.73;100.00
20119;BME280;10220;42.716;23.306;2023-05-11T13:09:40;95449.72;;;12.88;100.00
20119;BME280;10220;42.716;23.306;2023-05-11T13:12:16;95412.84;;;12.60;100.00
20119;BME280;10220;42.716;23.306;2023-05-11T13:14:46;95431.13;;;12.78;100.00
20119;BME280;10220;42.716;23.306;2023-05-11T13:17:27;95446.00;;;12.71;100.00
20119;BME280;10220;42.716;23.306;2023-05-11T13:19:53;95435.69;;;12.89;100.00
20119;BME280;10220;42.716;23.306;2023-05-11T13:22:18;95440.13;;;12.82;100.00
20119;BME280;10220;42.716;23.306;2023-05-11T13:24:44;95436.66;;;12.94;100.00
20119;BME280;10220;42.716;23.306;2023-05-11T13:27:09;95419.78;;;13.03;100.00
20119;BME280;10220;42.716;23.306;2023-05-11T13:29:35;95441.34;;;13.10;100.00
20119;BME280;10220;42.716;23.306;2023-05-11T13:32:00;95441.72;;;13.14;100.00
20119;BME280;10220;42.716;23.306;2023-05-11T13:34:25;95437.69;;;13.18;100.00
20119;BME280;10220;42.716;23.306;2023-05-11T13:36:51;95434.72;;;13.14;100.00
20119;BME280;10220;42.716;23.306;2023-05-11T13:39:16;95441.28;;;12.92;100.00
20119;BME280;10220;42.716;23.306;2023-05-11T13:41:42;95437.50;;;13.19;100.00
20119;BME280;10220;42.716;23.306;2023-05-11T13:44:08;95425.50;;;12.81;100.00
20119;BME280;10220;42.716;23.306;2023-05-11T13:46:34;95427.44;;;12.98;100.00